sensor_id;sensor_type;location;lat;lon;timestamp;P1;durP1;ratioP1;P2;durP2;ratioP2
1685;SDS011;840;47.980;7.830;2023-06-22T00:01:22;8.63;;;3.93;;
1685;SDS011;840;47.980;7.830;2023-06-22T00:03:49;4.57;;;4.13;;
1685;SDS011;840;47.980;7.830;2023-06-22T00:06:16;7.50;;;4.13;;
1685;SDS011;840;47.980;7.830;2023-06-22T00:08:43;5.37;;;4.20;;
1685;SDS011;840;47.980;7.830;2023-06-22T00:11:13;8.80;;;4.70;;
1685;SDS011;840;47.980;7.830;2023-06-22T00:13:39;5.30;;;3.97;;
1685;SDS011;840;47.980;7.830;2023-06-22T00:16:06;9.63;;;3.93;;
1685;SDS011;840;47.980;7.830;2023-06-22T00:18:33;7.80;;;4.87;;
1685;SDS011;840;47.980;7.830;2023-06-22T00:21:01;5.50;;;3.90;;
1685;SDS011;840;47.980;7.830;2023-06-22T00:23:29;7.47;;;4.07;;
1685;SDS011;840;47.980;7.830;2023-06-22T00:25:59;9.10;;;5.30;;
1685;SDS011;840;47.980;7.830;2023-06-22T00:28:28;5.80;;;4.20;;
1685;SDS011;840;47.980;7.830;2023-06-22T00:30:55;8.40;;;5.37;;
1685;SDS011;840;47.980;7.830;2023-06-22T00:33:22;13.30;;;4.90;;
1685;SDS011;840;47.980;7.830;2023-06-22T00:35:49;5.57;;;5.03;;
1685;SDS011;840;47.980;7.830;2023-06-22T00:38:17;6.00;;;3.90;;
1685;SDS011;840;47.980;7.830;2023-06-22T00:40:44;9.20;;;4.27;;
1685;SDS011;840;47.980;7.830;2023-06-22T00:43:11;5.07;;;4.33;;
1685;SDS011;840;47.980;7.830;2023-06-22T00:45:40;11.30;;;5.20;;
1685;SDS011;840;47.980;7.830;2023-06-22T00:48:07;7.90;;;6.73;;
1685;SDS011;840;47.980;7.830;2023-06-22T00:50:34;6.17;;;4.37;;
1685;SDS011;840;47.980;7.830;2023-06-22T00:53:03;6.43;;;4.80;;
1685;SDS011;840;47.980;7.830;2023-06-22T00:55:33;7.00;;;5.23;;
1685;SDS011;840;47.980;7.830;2023-06-22T00:58:02;6.40;;;5.87;;
1685;SDS011;840;47.980;7.830;2023-06-22T01:00:30;8.90;;;5.37;;
1685;SDS011;840;47.980;7.830;2023-06-22T01:02:59;8.90;;;4.83;;
1685;SDS011;840;47.980;7.830;2023-06-22T01:05:26;7.93;;;5.57;;
1685;SDS011;840;47.980;7.830;2023-06-22T01:08:05;10.00;;;5.20;;
1685;SDS011;840;47.980;7.830;2023-06-22T01:10:41;7.27;;;5.17;;
1685;SDS011;840;47.980;7.830;2023-06-22T01:13:14;5.77;;;4.80;;
1685;SDS011;840;47.980;7.830;2023-06-22T01:15:46;6.37;;;5.77;;
1685;SDS011;840;47.980;7.830;2023-06-22T01:18:18;8.70;;;6.10;;
1685;SDS011;840;47.980;7.830;2023-06-22T01:20:58;5.40;;;4.90;;
1685;SDS011;840;47.980;7.830;2023-06-22T01:23:29;8.90;;;5.97;;
1685;SDS011;840;47.980;7.830;2023-06-22T01:26:05;7.73;;;5.30;;
1685;SDS011;840;47.980;7.830;2023-06-22T01:28:42;11.00;;;6.00;;
1685;SDS011;840;47.980;7.830;2023-06-22T01:31:12;5.67;;;5.17;;
1685;SDS011;840;47.980;7.830;2023-06-22T01:33:43;7.40;;;5.10;;
1685;SDS011;840;47.980;7.830;2023-06-22T01:36:13;7.17;;;5.50;;
1685;SDS011;840;47.980;7.830;2023-06-22T01:38:40;10.13;;;5.40;;
1685;SDS011;840;47.980;7.830;2023-06-22T01:41:08;10.70;;;5.70;;
1685;SDS011;840;47.980;7.830;2023-06-22T01:43:35;9.40;;;6.50;;
1685;SDS011;840;47.980;7.830;2023-06-22T01:46:04;8.73;;;5.63;;
1685;SDS011;840;47.980;7.830;2023-06-22T01:48:31;11.33;;;5.40;;
1685;SDS011;840;47.980;7.830;2023-06-22T01:50:58;10.43;;;6.50;;
1685;SDS011;840;47.980;7.830;2023-06-22T01:53:26;9.80;;;5.90;;
1685;SDS011;840;47.980;7.830;2023-06-22T01:55:53;6.20;;;5.57;;
1685;SDS011;840;47.980;7.830;2023-06-22T01:58:20;6.47;;;5.73;;
1685;SDS011;840;47.980;7.830;2023-06-22T02:03:37;9.90;;;5.90;;
1685;SDS011;840;47.980;7.830;2023-06-22T02:06:10;11.30;;;5.87;;
1685;SDS011;840;47.980;7.830;2023-06-22T02:08:41;10.47;;;5.40;;
1685;SDS011;840;47.980;7.830;2023-06-22T02:11:13;7.90;;;5.57;;
1685;SDS011;840;47.980;7.830;2023-06-22T02:13:42;7.27;;;6.63;;
1685;SDS011;840;47.980;7.830;2023-06-22T02:16:12;8.70;;;6.00;;
1685;SDS011;840;47.980;7.830;2023-06-22T02:18:39;10.97;;;5.90;;
1685;SDS011;840;47.980;7.830;2023-06-22T02:21:12;5.50;;;4.87;;
1685;SDS011;840;47.980;7.830;2023-06-22T02:23:39;8.30;;;5.83;;
1685;SDS011;840;47.980;7.830;2023-06-22T02:26:06;8.97;;;5.67;;
1685;SDS011;840;47.980;7.830;2023-06-22T02:28:33;12.00;;;6.77;;
1685;SDS011;840;47.980;7.830;2023-06-22T02:31:00;5.87;;;5.27;;
1685;SDS011;840;47.980;7.830;2023-06-22T02:33:28;7.60;;;6.53;;
1685;SDS011;840;47.980;7.830;2023-06-22T02:35:55;7.50;;;4.63;;
1685;SDS011;840;47.980;7.830;2023-06-22T02:38:22;8.43;;;5.57;;
1685;SDS011;840;47.980;7.830;2023-06-22T02:40:49;6.90;;;5.17;;
1685;SDS011;840;47.980;7.830;2023-06-22T02:43:16;6.40;;;5.10;;
1685;SDS011;840;47.980;7.830;2023-06-22T02:45:43;6.37;;;5.00;;
1685;SDS011;840;47.980;7.830;2023-06-22T02:48:09;7.47;;;5.27;;
1685;SDS011;840;47.980;7.830;2023-06-22T02:50:38;6.73;;;4.90;;
1685;SDS011;840;47.980;7.830;2023-06-22T02:53:05;9.17;;;5.00;;
1685;SDS011;840;47.980;7.830;2023-06-22T02:55:31;5.50;;;4.83;;
1685;SDS011;840;47.980;7.830;2023-06-22T02:57:58;4.83;;;4.43;;
1685;SDS011;840;47.980;7.830;2023-06-22T03:00:29;7.93;;;5.20;;
1685;SDS011;840;47.980;7.830;2023-06-22T03:02:57;11.80;;;5.53;;
1685;SDS011;840;47.980;7.830;2023-06-22T03:05:24;6.63;;;5.10;;
1685;SDS011;840;47.980;7.830;2023-06-22T03:07:52;6.60;;;6.00;;
1685;SDS011;840;47.980;7.830;2023-06-22T03:10:19;7.43;;;4.83;;
1685;SDS011;840;47.980;7.830;2023-06-22T03:12:46;7.10;;;5.50;;
1685;SDS011;840;47.980;7.830;2023-06-22T03:15:13;6.77;;;4.50;;
1685;SDS011;840;47.980;7.830;2023-06-22T03:17:42;7.13;;;4.87;;
1685;SDS011;840;47.980;7.830;2023-06-22T03:20:09;7.00;;;5.37;;
1685;SDS011;840;47.980;7.830;2023-06-22T03:22:37;8.70;;;5.93;;
1685;SDS011;840;47.980;7.830;2023-06-22T03:25:06;7.60;;;5.50;;
1685;SDS011;840;47.980;7.830;2023-06-22T03:27:38;5.70;;;5.20;;
1685;SDS011;840;47.980;7.830;2023-06-22T03:30:06;7.10;;;5.60;;
1685;SDS011;840;47.980;7.830;2023-06-22T03:32:34;5.67;;;5.07;;
1685;SDS011;840;47.980;7.830;2023-06-22T03:35:01;6.53;;;5.63;;
1685;SDS011;840;47.980;7.830;2023-06-22T03:37:28;9.63;;;5.20;;
1685;SDS011;840;47.980;7.830;2023-06-22T03:39:55;6.93;;;6.13;;
1685;SDS011;840;47.980;7.830;2023-06-22T03:42:23;9.00;;;6.60;;
1685;SDS011;840;47.980;7.830;2023-06-22T03:44:50;7.20;;;6.30;;
1685;SDS011;840;47.980;7.830;2023-06-22T03:47:17;10.73;;;7.37;;
1685;SDS011;840;47.980;7.830;2023-06-22T03:49:44;8.13;;;5.70;;
1685;SDS011;840;47.980;7.830;2023-06-22T03:52:11;8.80;;;6.63;;
1685;SDS011;840;47.980;7.830;2023-06-22T03:54:37;6.93;;;6.23;;
1685;SDS011;840;47.980;7.830;2023-06-22T03:57:04;6.83;;;5.80;;
1685;SDS011;840;47.980;7.830;2023-06-22T03:59:33;8.43;;;6.10;;
1685;SDS011;840;47.980;7.830;2023-06-22T04:02:00;6.60;;;5.70;;
1685;SDS011;840;47.980;7.830;2023-06-22T04:04:27;9.03;;;5.73;;
1685;SDS011;840;47.980;7.830;2023-06-22T04:06:53;6.80;;;6.10;;
1685;SDS011;840;47.980;7.830;2023-06-22T04:09:20;9.17;;;5.50;;
1685;SDS011;840;47.980;7.830;2023-06-22T04:11:47;7.33;;;5.13;;
1685;SDS011;840;47.980;7.830;2023-06-22T04:14:14;6.87;;;5.83;;
1685;SDS011;840;47.980;7.830;2023-06-22T04:16:43;6.60;;;5.90;;
1685;SDS011;840;47.980;7.830;2023-06-22T04:19:11;6.90;;;5.60;;
1685;SDS011;840;47.980;7.830;2023-06-22T04:21:41;12.00;;;5.80;;
1685;SDS011;840;47.980;7.830;2023-06-22T04:24:09;9.60;;;5.60;;
1685;SDS011;840;47.980;7.830;2023-06-22T04:26:36;11.40;;;6.60;;
1685;SDS011;840;47.980;7.830;2023-06-22T04:29:03;6.90;;;6.07;;
1685;SDS011;840;47.980;7.830;2023-06-22T04:31:30;7.90;;;6.77;;
1685;SDS011;840;47.980;7.830;2023-06-22T04:34:03;6.83;;;5.90;;
1685;SDS011;840;47.980;7.830;2023-06-22T04:36:33;6.10;;;5.50;;
1685;SDS011;840;47.980;7.830;2023-06-22T04:39:03;10.90;;;6.23;;
1685;SDS011;840;47.980;7.830;2023-06-22T04:41:31;10.50;;;6.90;;
1685;SDS011;840;47.980;7.830;2023-06-22T04:44:06;11.80;;;6.40;;
1685;SDS011;840;47.980;7.830;2023-06-22T04:46:34;6.70;;;6.10;;
1685;SDS011;840;47.980;7.830;2023-06-22T04:49:04;11.77;;;7.20;;
1685;SDS011;840;47.980;7.830;2023-06-22T04:51:35;7.43;;;6.63;;
1685;SDS011;840;47.980;7.830;2023-06-22T04:54:03;8.23;;;6.87;;
1685;SDS011;840;47.980;7.830;2023-06-22T04:56:31;8.63;;;6.90;;
1685;SDS011;840;47.980;7.830;2023-06-22T04:58:57;11.13;;;8.23;;
1685;SDS011;840;47.980;7.830;2023-06-22T05:01:24;9.73;;;7.63;;
1685;SDS011;840;47.980;7.830;2023-06-22T05:03:51;11.27;;;7.00;;
1685;SDS011;840;47.980;7.830;2023-06-22T05:06:21;9.70;;;7.87;;
1685;SDS011;840;47.980;7.830;2023-06-22T05:08:49;9.93;;;7.30;;
1685;SDS011;840;47.980;7.830;2023-06-22T05:11:17;12.70;;;8.80;;
1685;SDS011;840;47.980;7.830;2023-06-22T05:13:43;13.93;;;8.53;;
1685;SDS011;840;47.980;7.830;2023-06-22T05:16:10;8.63;;;6.50;;
1685;SDS011;840;47.980;7.830;2023-06-22T05:18:37;11.43;;;7.93;;
1685;SDS011;840;47.980;7.830;2023-06-22T05:21:04;8.53;;;7.30;;
1685;SDS011;840;47.980;7.830;2023-06-22T05:23:32;9.47;;;8.37;;
1685;SDS011;840;47.980;7.830;2023-06-22T05:25:59;12.10;;;9.47;;
1685;SDS011;840;47.980;7.830;2023-06-22T05:28:26;9.00;;;7.23;;
1685;SDS011;840;47.980;7.830;2023-06-22T05:30:52;17.03;;;11.90;;
1685;SDS011;840;47.980;7.830;2023-06-22T05:33:19;9.03;;;8.17;;
1685;SDS011;840;47.980;7.830;2023-06-22T05:35:46;14.30;;;7.20;;
1685;SDS011;840;47.980;7.830;2023-06-22T05:38:13;13.13;;;8.33;;
1685;SDS011;840;47.980;7.830;2023-06-22T05:40:41;8.97;;;7.03;;
1685;SDS011;840;47.980;7.830;2023-06-22T05:43:08;16.87;;;7.90;;
1685;SDS011;840;47.980;7.830;2023-06-22T05:45:35;9.13;;;8.17;;
1685;SDS011;840;47.980;7.830;2023-06-22T05:48:01;20.50;;;7.73;;
1685;SDS011;840;47.980;7.830;2023-06-22T05:50:29;13.67;;;7.67;;
1685;SDS011;840;47.980;7.830;2023-06-22T05:52:55;10.00;;;8.70;;
1685;SDS011;840;47.980;7.830;2023-06-22T05:55:22;13.27;;;7.57;;
1685;SDS011;840;47.980;7.830;2023-06-22T05:57:50;12.40;;;7.87;;
1685;SDS011;840;47.980;7.830;2023-06-22T06:00:17;8.43;;;7.37;;
1685;SDS011;840;47.980;7.830;2023-06-22T06:02:45;11.43;;;8.50;;
1685;SDS011;840;47.980;7.830;2023-06-22T06:05:11;15.47;;;8.53;;
1685;SDS011;840;47.980;7.830;2023-06-22T06:07:39;12.10;;;8.27;;
1685;SDS011;840;47.980;7.830;2023-06-22T06:10:06;13.30;;;8.13;;
1685;SDS011;840;47.980;7.830;2023-06-22T06:12:34;9.00;;;6.87;;
1685;SDS011;840;47.980;7.830;2023-06-22T06:15:02;12.10;;;7.80;;
1685;SDS011;840;47.980;7.830;2023-06-22T06:17:30;11.17;;;8.40;;
1685;SDS011;840;47.980;7.830;2023-06-22T06:19:58;12.73;;;9.40;;
1685;SDS011;840;47.980;7.830;2023-06-22T06:22:25;15.40;;;9.50;;
1685;SDS011;840;47.980;7.830;2023-06-22T06:24:52;9.00;;;8.10;;
1685;SDS011;840;47.980;7.830;2023-06-22T06:27:18;13.97;;;9.20;;
1685;SDS011;840;47.980;7.830;2023-06-22T06:29:45;12.90;;;8.73;;
1685;SDS011;840;47.980;7.830;2023-06-22T06:32:15;17.43;;;11.77;;
1685;SDS011;840;47.980;7.830;2023-06-22T06:34:41;16.90;;;11.57;;
1685;SDS011;840;47.980;7.830;2023-06-22T06:37:08;15.63;;;12.43;;
1685;SDS011;840;47.980;7.830;2023-06-22T06:39:35;12.90;;;11.40;;
1685;SDS011;840;47.980;7.830;2023-06-22T06:42:03;15.20;;;10.70;;
1685;SDS011;840;47.980;7.830;2023-06-22T06:44:31;11.10;;;9.80;;
1685;SDS011;840;47.980;7.830;2023-06-22T06:46:58;15.17;;;9.80;;
1685;SDS011;840;47.980;7.830;2023-06-22T06:49:26;10.30;;;9.00;;
1685;SDS011;840;47.980;7.830;2023-06-22T06:51:53;13.83;;;10.07;;
1685;SDS011;840;47.980;7.830;2023-06-22T06:54:20;9.83;;;8.73;;
1685;SDS011;840;47.980;7.830;2023-06-22T06:56:47;10.87;;;9.70;;
1685;SDS011;840;47.980;7.830;2023-06-22T06:59:15;11.93;;;9.40;;
1685;SDS011;840;47.980;7.830;2023-06-22T07:01:41;12.80;;;10.10;;
1685;SDS011;840;47.980;7.830;2023-06-22T07:04:09;11.40;;;8.27;;
1685;SDS011;840;47.980;7.830;2023-06-22T07:06:37;11.83;;;10.73;;
1685;SDS011;840;47.980;7.830;2023-06-22T07:09:04;13.63;;;10.00;;
1685;SDS011;840;47.980;7.830;2023-06-22T07:11:31;11.43;;;8.93;;
1685;SDS011;840;47.980;7.830;2023-06-22T07:13:58;14.23;;;7.80;;
1685;SDS011;840;47.980;7.830;2023-06-22T07:16:26;17.93;;;9.43;;
1685;SDS011;840;47.980;7.830;2023-06-22T07:18:53;10.37;;;9.37;;
1685;SDS011;840;47.980;7.830;2023-06-22T07:21:20;9.70;;;8.70;;
1685;SDS011;840;47.980;7.830;2023-06-22T07:23:48;8.93;;;8.03;;
1685;SDS011;840;47.980;7.830;2023-06-22T07:26:15;11.63;;;7.93;;
1685;SDS011;840;47.980;7.830;2023-06-22T07:28:42;7.57;;;6.77;;
1685;SDS011;840;47.980;7.830;2023-06-22T07:31:08;12.60;;;7.47;;
1685;SDS011;840;47.980;7.830;2023-06-22T07:33:35;10.90;;;7.33;;
1685;SDS011;840;47.980;7.830;2023-06-22T07:36:02;11.90;;;8.00;;
1685;SDS011;840;47.980;7.830;2023-06-22T07:38:32;8.33;;;7.20;;
1685;SDS011;840;47.980;7.830;2023-06-22T07:41:02;14.10;;;7.80;;
1685;SDS011;840;47.980;7.830;2023-06-22T07:43:30;9.90;;;7.80;;
1685;SDS011;840;47.980;7.830;2023-06-22T07:45:58;12.50;;;8.00;;
1685;SDS011;840;47.980;7.830;2023-06-22T07:48:24;10.43;;;7.77;;
1685;SDS011;840;47.980;7.830;2023-06-22T07:50:51;12.40;;;9.57;;
1685;SDS011;840;47.980;7.830;2023-06-22T07:53:19;22.00;;;9.00;;
1685;SDS011;840;47.980;7.830;2023-06-22T07:55:46;11.97;;;8.23;;
1685;SDS011;840;47.980;7.830;2023-06-22T07:58:14;12.17;;;9.87;;
1685;SDS011;840;47.980;7.830;2023-06-22T08:00:43;13.63;;;8.20;;
1685;SDS011;840;47.980;7.830;2023-06-22T08:03:10;8.77;;;6.73;;
1685;SDS011;840;47.980;7.830;2023-06-22T08:05:37;8.00;;;7.00;;
1685;SDS011;840;47.980;7.830;2023-06-22T08:08:04;10.43;;;7.47;;
1685;SDS011;840;47.980;7.830;2023-06-22T08:10:30;9.77;;;7.80;;
1685;SDS011;840;47.980;7.830;2023-06-22T08:12:57;11.50;;;8.57;;
1685;SDS011;840;47.980;7.830;2023-06-22T08:15:26;12.80;;;9.60;;
1685;SDS011;840;47.980;7.830;2023-06-22T08:17:53;11.33;;;9.50;;
1685;SDS011;840;47.980;7.830;2023-06-22T08:20:20;8.60;;;7.60;;
1685;SDS011;840;47.980;7.830;2023-06-22T08:22:47;10.23;;;6.97;;
1685;SDS011;840;47.980;7.830;2023-06-22T08:25:14;9.60;;;6.43;;
1685;SDS011;840;47.980;7.830;2023-06-22T08:27:44;11.60;;;6.40;;
1685;SDS011;840;47.980;7.830;2023-06-22T08:30:12;10.03;;;7.93;;
1685;SDS011;840;47.980;7.830;2023-06-22T08:32:41;9.73;;;7.60;;
1685;SDS011;840;47.980;7.830;2023-06-22T08:35:08;6.93;;;6.23;;
1685;SDS011;840;47.980;7.830;2023-06-22T08:37:35;7.77;;;6.50;;
1685;SDS011;840;47.980;7.830;2023-06-22T08:40:02;10.57;;;7.30;;
1685;SDS011;840;47.980;7.830;2023-06-22T08:42:30;9.10;;;7.00;;
1685;SDS011;840;47.980;7.830;2023-06-22T08:44:57;9.33;;;6.63;;
1685;SDS011;840;47.980;7.830;2023-06-22T08:47:24;9.70;;;6.47;;
1685;SDS011;840;47.980;7.830;2023-06-22T08:49:52;11.70;;;8.13;;
1685;SDS011;840;47.980;7.830;2023-06-22T08:52:19;6.83;;;6.13;;
1685;SDS011;840;47.980;7.830;2023-06-22T08:54:48;12.20;;;7.90;;
1685;SDS011;840;47.980;7.830;2023-06-22T08:57:15;11.10;;;6.43;;
1685;SDS011;840;47.980;7.830;2023-06-22T08:59:42;7.73;;;6.60;;
1685;SDS011;840;47.980;7.830;2023-06-22T09:02:09;7.77;;;6.53;;
1685;SDS011;840;47.980;7.830;2023-06-22T09:04:35;11.13;;;9.13;;
1685;SDS011;840;47.980;7.830;2023-06-22T09:07:04;10.40;;;6.70;;
1685;SDS011;840;47.980;7.830;2023-06-22T09:09:31;8.57;;;5.97;;
1685;SDS011;840;47.980;7.830;2023-06-22T09:11:58;10.53;;;7.30;;
1685;SDS011;840;47.980;7.830;2023-06-22T09:14:25;6.97;;;6.30;;
1685;SDS011;840;47.980;7.830;2023-06-22T09:16:51;10.70;;;6.53;;
1685;SDS011;840;47.980;7.830;2023-06-22T09:19:18;8.03;;;6.57;;
1685;SDS011;840;47.980;7.830;2023-06-22T09:21:45;9.60;;;5.23;;
1685;SDS011;840;47.980;7.830;2023-06-22T09:24:13;9.20;;;5.90;;
1685;SDS011;840;47.980;7.830;2023-06-22T09:26:40;7.10;;;5.83;;
1685;SDS011;840;47.980;7.830;2023-06-22T09:29:06;13.33;;;6.40;;
1685;SDS011;840;47.980;7.830;2023-06-22T09:31:34;10.07;;;6.93;;
1685;SDS011;840;47.980;7.830;2023-06-22T09:34:01;8.30;;;6.03;;
1685;SDS011;840;47.980;7.830;2023-06-22T09:36:28;7.60;;;6.30;;
1685;SDS011;840;47.980;7.830;2023-06-22T09:38:54;8.90;;;5.90;;
1685;SDS011;840;47.980;7.830;2023-06-22T09:41:25;10.90;;;6.70;;
1685;SDS011;840;47.980;7.830;2023-06-22T09:43:51;11.27;;;7.17;;
1685;SDS011;840;47.980;7.830;2023-06-22T09:46:19;7.23;;;6.37;;
1685;SDS011;840;47.980;7.830;2023-06-22T09:48:47;8.43;;;6.10;;
1685;SDS011;840;47.980;7.830;2023-06-22T09:51:14;12.37;;;7.50;;
1685;SDS011;840;47.980;7.830;2023-06-22T09:53:41;19.33;;;7.00;;
1685;SDS011;840;47.980;7.830;2023-06-22T09:56:07;8.90;;;6.47;;
1685;SDS011;840;47.980;7.830;2023-06-22T09:58:41;8.97;;;6.40;;
1685;SDS011;840;47.980;7.830;2023-06-22T10:01:08;9.30;;;6.00;;
1685;SDS011;840;47.980;7.830;2023-06-22T10:03:35;6.80;;;6.20;;
1685;SDS011;840;47.980;7.830;2023-06-22T10:06:02;10.23;;;6.37;;
1685;SDS011;840;47.980;7.830;2023-06-22T10:08:29;9.20;;;6.47;;
1685;SDS011;840;47.980;7.830;2023-06-22T10:10:56;11.03;;;6.10;;
1685;SDS011;840;47.980;7.830;2023-06-22T10:13:23;9.23;;;7.13;;
1685;SDS011;840;47.980;7.830;2023-06-22T10:15:51;8.60;;;6.13;;
1685;SDS011;840;47.980;7.830;2023-06-22T10:18:18;10.63;;;6.43;;
1685;SDS011;840;47.980;7.830;2023-06-22T10:20:47;7.87;;;5.93;;
1685;SDS011;840;47.980;7.830;2023-06-22T10:23:15;8.07;;;6.17;;
1685;SDS011;840;47.980;7.830;2023-06-22T10:25:41;7.67;;;6.80;;
1685;SDS011;840;47.980;7.830;2023-06-22T10:28:08;12.00;;;7.10;;
1685;SDS011;840;47.980;7.830;2023-06-22T10:30:35;8.50;;;6.60;;
1685;SDS011;840;47.980;7.830;2023-06-22T10:33:03;9.73;;;7.27;;
1685;SDS011;840;47.980;7.830;2023-06-22T10:35:29;8.07;;;5.90;;
1685;SDS011;840;47.980;7.830;2023-06-22T10:37:56;9.13;;;6.27;;
1685;SDS011;840;47.980;7.830;2023-06-22T10:40:23;10.83;;;6.53;;
1685;SDS011;840;47.980;7.830;2023-06-22T10:42:49;8.50;;;6.23;;
1685;SDS011;840;47.980;7.830;2023-06-22T10:45:16;9.57;;;6.43;;
1685;SDS011;840;47.980;7.830;2023-06-22T10:47:43;13.23;;;6.60;;
1685;SDS011;840;47.980;7.830;2023-06-22T10:50:11;7.67;;;5.90;;
1685;SDS011;840;47.980;7.830;2023-06-22T10:52:38;7.97;;;6.87;;
1685;SDS011;840;47.980;7.830;2023-06-22T10:55:06;7.90;;;7.10;;
1685;SDS011;840;47.980;7.830;2023-06-22T10:57:34;8.97;;;7.13;;
1685;SDS011;840;47.980;7.830;2023-06-22T11:00:01;8.57;;;7.07;;
1685;SDS011;840;47.980;7.830;2023-06-22T11:02:30;8.67;;;7.77;;
1685;SDS011;840;47.980;7.830;2023-06-22T11:04:57;8.07;;;7.23;;
1685;SDS011;840;47.980;7.830;2023-06-22T11:07:26;8.10;;;6.80;;
1685;SDS011;840;47.980;7.830;2023-06-22T11:09:53;9.20;;;6.50;;
1685;SDS011;840;47.980;7.830;2023-06-22T11:12:20;10.87;;;7.80;;
1685;SDS011;840;47.980;7.830;2023-06-22T11:14:47;10.47;;;7.47;;
1685;SDS011;840;47.980;7.830;2023-06-22T11:17:16;8.33;;;7.53;;
1685;SDS011;840;47.980;7.830;2023-06-22T11:19:44;8.47;;;6.87;;
1685;SDS011;840;47.980;7.830;2023-06-22T11:22:11;9.27;;;7.37;;
1685;SDS011;840;47.980;7.830;2023-06-22T11:24:40;9.50;;;7.37;;
1685;SDS011;840;47.980;7.830;2023-06-22T11:27:07;8.33;;;7.53;;
1685;SDS011;840;47.980;7.830;2023-06-22T11:29:34;8.67;;;7.80;;
1685;SDS011;840;47.980;7.830;2023-06-22T11:32:00;8.60;;;6.73;;
1685;SDS011;840;47.980;7.830;2023-06-22T11:34:27;9.00;;;8.20;;
1685;SDS011;840;47.980;7.830;2023-06-22T11:36:54;8.33;;;7.40;;
1685;SDS011;840;47.980;7.830;2023-06-22T11:39:21;9.20;;;8.10;;
1685;SDS011;840;47.980;7.830;2023-06-22T11:41:50;10.63;;;8.00;;
1685;SDS011;840;47.980;7.830;2023-06-22T11:44:16;10.17;;;7.70;;
1685;SDS011;840;47.980;7.830;2023-06-22T11:46:43;8.87;;;7.27;;
1685;SDS011;840;47.980;7.830;2023-06-22T11:49:10;10.63;;;7.57;;
1685;SDS011;840;47.980;7.830;2023-06-22T11:51:37;8.63;;;7.20;;
1685;SDS011;840;47.980;7.830;2023-06-22T11:54:04;9.27;;;7.90;;
1685;SDS011;840;47.980;7.830;2023-06-22T11:56:31;10.93;;;7.00;;
1685;SDS011;840;47.980;7.830;2023-06-22T11:59:00;9.40;;;8.50;;
1685;SDS011;840;47.980;7.830;2023-06-22T12:01:27;10.00;;;7.90;;
1685;SDS011;840;47.980;7.830;2023-06-22T12:03:54;15.03;;;7.87;;
1685;SDS011;840;47.980;7.830;2023-06-22T12:06:20;10.70;;;7.00;;
1685;SDS011;840;47.980;7.830;2023-06-22T12:08:48;9.03;;;7.03;;
1685;SDS011;840;47.980;7.830;2023-06-22T12:11:15;7.30;;;6.60;;
1685;SDS011;840;47.980;7.830;2023-06-22T12:13:42;7.53;;;6.47;;
1685;SDS011;840;47.980;7.830;2023-06-22T12:16:11;9.33;;;8.00;;
1685;SDS011;840;47.980;7.830;2023-06-22T12:18:38;8.43;;;7.33;;
1685;SDS011;840;47.980;7.830;2023-06-22T12:21:10;8.90;;;8.00;;
1685;SDS011;840;47.980;7.830;2023-06-22T12:23:37;9.60;;;7.63;;
1685;SDS011;840;47.980;7.830;2023-06-22T12:26:03;11.50;;;8.90;;
1685;SDS011;840;47.980;7.830;2023-06-22T12:28:31;11.77;;;8.83;;
1685;SDS011;840;47.980;7.830;2023-06-22T12:30:58;11.33;;;8.87;;
1685;SDS011;840;47.980;7.830;2023-06-22T12:33:26;12.47;;;8.23;;
1685;SDS011;840;47.980;7.830;2023-06-22T12:35:55;14.83;;;9.13;;
1685;SDS011;840;47.980;7.830;2023-06-22T12:38:22;10.43;;;8.00;;
1685;SDS011;840;47.980;7.830;2023-06-22T12:40:50;9.37;;;7.27;;
1685;SDS011;840;47.980;7.830;2023-06-22T12:43:17;14.13;;;7.07;;
1685;SDS011;840;47.980;7.830;2023-06-22T12:45:44;8.97;;;6.70;;
1685;SDS011;840;47.980;7.830;2023-06-22T12:48:11;6.67;;;6.07;;
1685;SDS011;840;47.980;7.830;2023-06-22T12:50:39;7.37;;;6.20;;
1685;SDS011;840;47.980;7.830;2023-06-22T12:53:06;8.10;;;6.10;;
1685;SDS011;840;47.980;7.830;2023-06-22T12:55:32;9.03;;;6.67;;
1685;SDS011;840;47.980;7.830;2023-06-22T12:57:59;9.20;;;6.67;;
1685;SDS011;840;47.980;7.830;2023-06-22T13:00:26;8.87;;;6.50;;
1685;SDS011;840;47.980;7.830;2023-06-22T13:02:53;10.43;;;6.27;;
1685;SDS011;840;47.980;7.830;2023-06-22T13:05:20;9.73;;;6.83;;
1685;SDS011;840;47.980;7.830;2023-06-22T13:07:48;11.83;;;6.30;;
1685;SDS011;840;47.980;7.830;2023-06-22T13:10:15;5.77;;;4.73;;
1685;SDS011;840;47.980;7.830;2023-06-22T13:12:42;10.70;;;7.00;;
1685;SDS011;840;47.980;7.830;2023-06-22T13:15:08;14.90;;;6.33;;
1685;SDS011;840;47.980;7.830;2023-06-22T13:17:35;9.00;;;6.93;;
1685;SDS011;840;47.980;7.830;2023-06-22T13:20:02;9.73;;;5.70;;
1685;SDS011;840;47.980;7.830;2023-06-22T13:22:30;9.43;;;5.60;;
1685;SDS011;840;47.980;7.830;2023-06-22T13:25:06;10.47;;;6.30;;
1685;SDS011;840;47.980;7.830;2023-06-22T13:27:36;8.00;;;6.27;;
1685;SDS011;840;47.980;7.830;2023-06-22T13:30:04;9.03;;;6.80;;
1685;SDS011;840;47.980;7.830;2023-06-22T13:32:31;6.00;;;5.40;;
1685;SDS011;840;47.980;7.830;2023-06-22T13:34:58;11.93;;;7.20;;
1685;SDS011;840;47.980;7.830;2023-06-22T13:37:25;13.70;;;6.60;;
1685;SDS011;840;47.980;7.830;2023-06-22T13:39:52;12.33;;;6.60;;
1685;SDS011;840;47.980;7.830;2023-06-22T13:42:22;5.53;;;5.00;;
1685;SDS011;840;47.980;7.830;2023-06-22T13:44:50;12.47;;;6.23;;
1685;SDS011;840;47.980;7.830;2023-06-22T13:47:16;9.60;;;6.10;;
1685;SDS011;840;47.980;7.830;2023-06-22T13:49:45;13.77;;;6.50;;
1685;SDS011;840;47.980;7.830;2023-06-22T13:52:11;9.10;;;5.87;;
1685;SDS011;840;47.980;7.830;2023-06-22T13:54:38;6.70;;;5.67;;
1685;SDS011;840;47.980;7.830;2023-06-22T13:57:05;9.50;;;5.57;;
1685;SDS011;840;47.980;7.830;2023-06-22T13:59:34;10.77;;;6.40;;
1685;SDS011;840;47.980;7.830;2023-06-22T14:02:01;6.77;;;5.70;;
1685;SDS011;840;47.980;7.830;2023-06-22T14:04:28;9.20;;;7.37;;
1685;SDS011;840;47.980;7.830;2023-06-22T14:06:55;9.13;;;6.20;;
1685;SDS011;840;47.980;7.830;2023-06-22T14:09:22;11.67;;;5.67;;
1685;SDS011;840;47.980;7.830;2023-06-22T14:11:49;11.67;;;6.77;;
1685;SDS011;840;47.980;7.830;2023-06-22T14:14:15;10.93;;;6.40;;
1685;SDS011;840;47.980;7.830;2023-06-22T14:16:43;10.83;;;4.90;;
1685;SDS011;840;47.980;7.830;2023-06-22T14:19:10;8.17;;;5.80;;
1685;SDS011;840;47.980;7.830;2023-06-22T14:21:37;7.70;;;5.13;;
1685;SDS011;840;47.980;7.830;2023-06-22T14:24:04;10.33;;;5.63;;
1685;SDS011;840;47.980;7.830;2023-06-22T14:26:31;8.27;;;5.17;;
1685;SDS011;840;47.980;7.830;2023-06-22T14:28:58;7.57;;;5.90;;
1685;SDS011;840;47.980;7.830;2023-06-22T14:31:25;11.53;;;6.57;;
1685;SDS011;840;47.980;7.830;2023-06-22T14:33:53;10.40;;;5.57;;
1685;SDS011;840;47.980;7.830;2023-06-22T14:36:19;7.77;;;5.77;;
1685;SDS011;840;47.980;7.830;2023-06-22T14:38:46;5.93;;;5.20;;
1685;SDS011;840;47.980;7.830;2023-06-22T14:41:13;9.13;;;6.43;;
1685;SDS011;840;47.980;7.830;2023-06-22T14:43:44;8.70;;;6.53;;
1685;SDS011;840;47.980;7.830;2023-06-22T14:46:12;6.33;;;5.73;;
1685;SDS011;840;47.980;7.830;2023-06-22T14:48:39;14.33;;;6.00;;
1685;SDS011;840;47.980;7.830;2023-06-22T14:51:07;8.30;;;5.33;;
1685;SDS011;840;47.980;7.830;2023-06-22T14:53:34;7.27;;;5.10;;
1685;SDS011;840;47.980;7.830;2023-06-22T14:56:01;10.00;;;5.30;;
1685;SDS011;840;47.980;7.830;2023-06-22T14:58:29;10.43;;;5.43;;
1685;SDS011;840;47.980;7.830;2023-06-22T15:00:58;8.73;;;5.73;;
1685;SDS011;840;47.980;7.830;2023-06-22T15:03:24;7.43;;;5.00;;
1685;SDS011;840;47.980;7.830;2023-06-22T15:05:53;7.80;;;5.03;;
1685;SDS011;840;47.980;7.830;2023-06-22T15:08:22;8.17;;;5.23;;
1685;SDS011;840;47.980;7.830;2023-06-22T15:10:50;6.27;;;5.30;;
1685;SDS011;840;47.980;7.830;2023-06-22T15:13:17;6.83;;;5.40;;
1685;SDS011;840;47.980;7.830;2023-06-22T15:15:45;7.77;;;4.30;;
1685;SDS011;840;47.980;7.830;2023-06-22T15:18:13;9.03;;;5.60;;
1685;SDS011;840;47.980;7.830;2023-06-22T15:20:39;10.33;;;5.10;;
1685;SDS011;840;47.980;7.830;2023-06-22T15:23:09;7.33;;;5.00;;
1685;SDS011;840;47.980;7.830;2023-06-22T15:25:38;8.33;;;5.00;;
1685;SDS011;840;47.980;7.830;2023-06-22T15:28:04;9.77;;;4.57;;
1685;SDS011;840;47.980;7.830;2023-06-22T15:30:31;10.53;;;4.67;;